Time;durP1;ratioP1;P1;durP2;ratioP2;P2;SDS_P1;SDS_P2;PMS_P1;PMS_P2;Temp;Humidity;BMP_temperature;BMP_pressure;BME280_temperature;BME280_humidity;BME280_pressure;Samples;Min_cycle;Max_cycle;Signal;HPM_P1;HPM_P2
2022/10/10 00:00:39;;;;;;;16.73;13.40;;;14.90;99.90;;;15.12;67.54;95680.13;5025338;28;20471;-55
2022/10/10 00:03:07;;;;;;;19.17;13.50;;;14.90;99.90;;;15.09;67.45;95679.56;5024462;28;20452;-56
2022/10/10 00:05:36;;;;;;;20.33;14.33;;;14.80;99.90;;;15.05;67.36;95677.19;5023103;28;20503;-55
2022/10/10 00:08:03;;;;;;;17.47;14.60;;;14.80;99.90;;;15.03;67.49;95688.94;5023520;28;20515;-56
2022/10/10 00:10:30;;;;;;;20.57;14.40;;;14.70;99.90;;;15.00;67.40;95687.41;5024209;28;20558;-55
2022/10/10 00:12:58;;;;;;;21.17;15.30;;;14.70;99.90;;;14.99;67.46;95698.16;5023998;28;20989;-55
2022/10/10 00:15:25;;;;;;;22.60;16.07;;;14.70;99.90;;;14.95;67.78;95697.63;5022617;28;20477;-55
2022/10/10 00:17:52;;;;;;;33.43;14.40;;;14.70;99.90;;;14.93;67.69;95693.44;5021589;28;20464;-56
2022/10/10 00:20:20;;;;;;;23.07;13.50;;;14.60;99.90;;;14.90;67.87;95689.25;5022602;28;20481;-56
2022/10/10 00:22:49;;;;;;;20.70;15.73;;;14.60;99.90;;;14.90;68.00;95689.25;5023922;28;20461;-53
2022/10/10 00:25:16;;;;;;;23.20;15.20;;;14.60;99.90;;;14.89;68.12;95692.91;5023366;28;20913;-57
2022/10/10 00:27:43;;;;;;;18.30;14.77;;;14.60;99.90;;;14.86;68.16;95687.91;5024180;28;20560;-55
2022/10/10 00:30:11;;;;;;;19.73;14.70;;;14.60;99.90;;;14.85;67.67;95687.06;5021725;28;20516;-56
2022/10/10 00:32:39;;;;;;;19.73;14.33;;;14.60;99.90;;;14.83;68.07;95688.19;5023606;28;20706;-55
2022/10/10 00:35:07;;;;;;;22.03;15.10;;;14.50;99.90;;;14.81;67.88;95684.84;5023380;28;20473;-56
2022/10/10 00:37:34;;;;;;;18.10;14.30;;;14.50;99.90;;;14.78;67.79;95688.63;5025955;28;20456;-57
2022/10/10 00:40:03;;;;;;;18.10;14.10;;;14.50;99.90;;;14.75;67.62;95685.41;5026284;28;20473;-54
2022/10/10 00:42:31;;;;;;;16.70;13.93;;;14.40;99.90;;;14.70;67.82;95684.06;5024761;28;20468;-56
2022/10/10 00:45:38;;;;;;;24.83;13.73;;;14.40;99.90;;;14.65;68.15;95681.00;5024302;28;21000;-56
2022/10/10 00:48:08;;;;;;;20.40;14.40;;;14.40;99.90;;;14.61;67.62;95681.44;5021432;28;20520;-55
2022/10/10 00:50:38;;;;;;;21.23;13.93;;;14.30;99.90;;;14.56;67.79;95681.81;5028149;28;20496;-56
2022/10/10 00:53:06;;;;;;;22.33;13.50;;;14.30;99.90;;;14.52;67.54;95677.81;5026027;28;20448;-55
2022/10/10 00:55:34;;;;;;;18.67;14.40;;;14.20;99.90;;;14.49;67.44;95688.69;5026224;28;20476;-55
2022/10/10 00:58:02;;;;;;;15.03;13.30;;;14.20;99.90;;;14.42;67.77;95680.50;5027594;28;20461;-55
2022/10/10 01:00:29;;;;;;;17.30;13.60;;;14.10;99.90;;;14.39;67.64;95682.59;5027505;28;20488;-55
2022/10/10 01:02:56;;;;;;;15.10;13.30;;;14.10;99.90;;;14.34;67.82;95678.56;5025988;28;20461;-55
2022/10/10 01:05:24;;;;;;;17.60;14.07;;;14.10;99.90;;;14.32;67.70;95680.50;5025823;28;20484;-58
2022/10/10 01:07:51;;;;;;;15.80;13.70;;;14.10;99.90;;;14.28;67.98;95679.16;5027207;28;20460;-57
2022/10/10 01:10:21;;;;;;;26.13;13.33;;;14.00;99.90;;;14.24;68.10;95679.56;5026605;28;20477;-55
2022/10/10 01:13:03;;;;;;;19.77;14.97;;;14.00;99.90;;;14.20;67.88;95686.94;5026081;28;20460;-56
2022/10/10 01:15:37;;;;;;;18.23;14.60;;;13.90;99.90;;;14.18;68.09;95693.38;5026516;28;20500;-57
2022/10/10 01:18:10;;;;;;;21.10;13.93;;;13.90;99.90;;;14.13;68.25;95685.84;5025537;28;21058;-56
2022/10/10 01:21:10;;;;;;;18.90;13.60;;;13.90;99.90;;;14.10;68.68;95696.72;5025152;28;20491;-58
2022/10/10 01:24:20;;;;;;;16.40;13.93;;;13.80;99.90;;;14.07;68.57;95691.72;5001438;28;20956;-56
2022/10/10 01:27:22;;;;;;;17.63;13.80;;;13.80;99.90;;;14.04;68.52;95692.81;5023285;28;20453;-55
2022/10/10 01:29:52;;;;;;;17.33;14.50;;;13.80;99.90;;;13.94;68.46;95682.25;5025981;28;20480;-55
2022/10/10 01:32:26;;;;;;;25.67;16.80;;;13.70;99.90;;;13.97;68.00;95687.25;5024434;28;20515;-55
2022/10/10 01:35:03;;;;;;;15.67;14.07;;;13.70;99.90;;;13.94;68.51;95700.78;5023010;28;20637;-56
2022/10/10 01:37:39;;;;;;;16.13;14.03;;;13.70;99.90;;;13.92;68.46;95700.06;5025072;28;20461;-55
2022/10/10 01:40:12;;;;;;;22.07;16.03;;;13.70;99.90;;;13.88;68.28;95681.97;5026547;28;20488;-57
2022/10/10 01:42:42;;;;;;;20.23;17.10;;;13.70;99.90;;;13.85;68.88;95688.38;5023449;28;20452;-56
2022/10/10 01:45:11;;;;;;;23.90;18.00;;;13.60;99.90;;;13.84;68.71;95681.41;5026078;28;20484;-56
2022/10/10 01:47:39;;;;;;;22.70;19.40;;;13.60;99.90;;;13.84;68.81;95684.06;5022863;28;20471;-55
2022/10/10 01:50:09;;;;;;;30.27;20.70;;;13.60;99.90;;;13.82;69.02;95686.03;5025395;28;20542;-56
2022/10/10 01:52:45;;;;;;;22.83;19.47;;;13.60;99.90;;;13.83;69.23;95695.59;5025070;28;20499;-56
2022/10/10 01:55:29;;;;;;;20.03;17.93;;;13.60;99.90;;;13.82;69.58;95696.59;5025679;28;20495;-56
2022/10/10 01:58:05;;;;;;;23.57;18.20;;;13.60;99.90;;;13.80;69.25;95695.88;5022840;28;20465;-56
2022/10/10 02:00:39;;;;;;;24.43;18.87;;;13.60;99.90;;;13.79;69.51;95700.34;5026838;28;20516;-57
2022/10/10 02:03:10;;;;;;;25.40;19.27;;;13.50;99.90;;;13.78;69.19;95689.91;5025208;28;20456;-54
2022/10/10 02:05:40;;;;;;;23.77;20.27;;;13.50;99.90;;;13.77;69.80;95701.44;5025633;28;20492;-56
2022/10/10 02:08:09;;;;;;;24.37;19.07;;;13.50;99.90;;;13.75;69.49;95687.53;5026240;28;20997;-55
2022/10/10 02:10:40;;;;;;;25.80;19.20;;;13.50;99.90;;;13.76;69.19;95699.78;5025293;28;20484;-55
2022/10/10 02:13:07;;;;;;;24.10;17.50;;;13.50;99.90;;;13.71;69.77;95697.56;5023766;28;21047;-55
2022/10/10 02:15:40;;;;;;;23.27;19.07;;;13.50;99.90;;;13.70;69.44;95701.19;5024839;28;20485;-55
2022/10/10 02:18:08;;;;;;;23.07;18.80;;;13.50;99.90;;;13.68;69.20;95708.41;5025322;28;20645;-56
2022/10/10 02:20:35;;;;;;;25.20;17.90;;;13.40;99.90;;;13.67;69.35;95711.19;5024701;28;20483;-55
2022/10/10 02:23:02;;;;;;;21.03;17.53;;;13.40;99.90;;;13.64;69.25;95707.00;5026761;28;20452;-57
2022/10/10 02:25:32;;;;;;;28.10;18.00;;;13.40;99.90;;;13.62;69.80;95708.97;5024903;28;20477;-54
2022/10/10 02:28:07;;;;;;;21.83;17.43;;;13.40;99.90;;;13.61;70.32;95708.13;5022704;28;20471;-54
2022/10/10 02:30:38;;;;;;;21.00;17.50;;;13.40;99.90;;;13.61;69.45;95702.81;5024554;28;20773;-56
2022/10/10 02:33:05;;;;;;;23.33;16.83;;;13.40;99.90;;;13.60;69.59;95711.75;5022262;28;20465;-56
2022/10/10 02:35:35;;;;;;;26.90;17.50;;;13.30;99.90;;;13.58;69.42;95704.91;5024583;28;20480;-55
2022/10/10 02:38:03;;;;;;;22.83;16.00;;;13.30;99.90;;;13.58;69.34;95699.63;5024664;28;20506;-57
2022/10/10 02:40:32;;;;;;;23.00;17.53;;;13.40;99.90;;;13.59;69.50;95707.44;5026085;28;20488;-57
2022/10/10 02:43:01;;;;;;;21.77;16.80;;;13.30;99.90;;;13.58;69.53;95712.84;5029615;28;20522;-55
2022/10/10 02:45:28;;;;;;;31.00;17.70;;;13.30;99.90;;;13.56;69.08;95710.34;5026221;28;20480;-55
2022/10/10 02:47:57;;;;;;;18.03;15.83;;;13.30;99.90;;;13.55;69.39;95711.31;5026012;28;20969;-55
2022/10/10 02:50:24;;;;;;;21.90;16.70;;;13.30;99.90;;;13.52;69.24;95702.81;5025923;28;20893;-58
2022/10/10 02:52:51;;;;;;;20.50;16.77;;;13.30;99.90;;;13.56;69.52;95701.59;5022257;28;21139;-55
2022/10/10 02:55:19;;;;;;;22.80;16.70;;;13.30;99.90;;;13.56;69.37;95705.06;5025884;28;20483;-58
2022/10/10 02:57:46;;;;;;;25.53;16.60;;;13.30;99.90;;;13.54;69.95;95706.16;5026337;28;20456;-55
2022/10/10 03:00:14;;;;;;;21.60;17.17;;;13.30;99.90;;;13.56;69.51;95710.34;5025694;28;20481;-56
2022/10/10 03:02:41;;;;;;;25.30;17.67;;;13.30;99.90;;;13.56;69.45;95713.00;5025814;28;20460;-56
2022/10/10 03:05:10;;;;;;;25.33;17.20;;;13.30;99.90;;;13.54;69.42;95704.38;5026019;28;20484;-56
2022/10/10 03:07:38;;;;;;;24.17;17.07;;;13.30;99.90;;;13.54;69.43;95704.38;5022378;28;20441;-56
2022/10/10 03:10:06;;;;;;;27.77;17.60;;;13.30;99.90;;;13.54;69.79;95714.09;5025204;28;20794;-54
2022/10/10 03:12:34;;;;;;;20.70;16.40;;;13.30;99.90;;;13.53;69.73;95704.50;5025256;28;20511;-56
2022/10/10 03:15:01;;;;;;;20.43;17.33;;;13.30;99.90;;;13.52;69.48;95708.94;5025880;28;20468;-56
2022/10/10 03:17:28;;;;;;;20.57;17.20;;;13.30;99.90;;;13.53;69.47;95712.44;5024765;28;20453;-56
2022/10/10 03:19:55;;;;;;;30.13;17.90;;;13.30;99.90;;;13.50;69.99;95705.59;5022720;28;20476;-56
2022/10/10 03:22:24;;;;;;;28.73;18.70;;;13.30;99.90;;;13.49;69.43;95706.56;5023889;28;20581;-54
2022/10/10 03:24:51;;;;;;;24.40;17.50;;;13.30;99.90;;;13.47;69.87;95716.44;5025029;28;20578;-55
2022/10/10 03:27:19;;;;;;;24.83;18.53;;;13.20;99.90;;;13.46;69.78;95722.69;5024230;28;20465;-54
2022/10/10 03:29:46;;;;;;;26.57;18.03;;;13.20;99.90;;;13.44;70.00;95720.19;5024229;28;20585;-56
2022/10/10 03:32:13;;;;;;;23.20;17.77;;;13.20;99.90;;;13.44;69.75;95719.38;5023749;28;20488;-56
2022/10/10 03:34:41;;;;;;;25.73;17.13;;;13.20;99.90;;;13.43;69.59;95723.81;5022577;28;20469;-56
2022/10/10 03:37:08;;;;;;;23.47;16.90;;;13.20;99.90;;;13.42;69.83;95722.16;5023425;28;20471;-54
2022/10/10 03:39:36;;;;;;;20.10;16.70;;;13.20;99.90;;;13.42;69.85;95730.06;5025521;28;20477;-54
2022/10/10 03:42:04;;;;;;;26.43;15.63;;;13.20;99.90;;;13.41;69.91;95723.09;5021938;28;20457;-56
2022/10/10 03:44:31;;;;;;;22.93;15.50;;;13.20;99.90;;;13.40;69.66;95723.25;5025196;28;20473;-53
2022/10/10 03:46:59;;;;;;;18.50;14.27;;;13.20;99.90;;;13.39;69.57;95724.22;5021772;28;20452;-55
2022/10/10 03:49:26;;;;;;;19.03;15.80;;;13.10;99.90;;;13.38;69.72;95717.28;5027009;28;20481;-56
2022/10/10 03:51:53;;;;;;;23.93;16.60;;;13.10;99.90;;;13.37;69.59;95723.50;5024952;28;20513;-55
2022/10/10 03:54:21;;;;;;;22.43;16.13;;;13.10;99.90;;;13.34;69.59;95727.28;5024948;28;20473;-56
2022/10/10 03:56:49;;;;;;;17.37;15.53;;;13.10;99.90;;;13.36;69.51;95729.78;5024793;28;20456;-55
2022/10/10 03:59:17;;;;;;;24.20;16.70;;;13.10;99.90;;;13.34;69.37;95721.16;5023617;28;20455;-55
2022/10/10 04:01:44;;;;;;;15.67;14.07;;;13.10;99.90;;;13.32;69.46;95731.81;5024515;28;20456;-55
2022/10/10 04:04:12;;;;;;;19.33;15.63;;;13.10;99.90;;;13.27;69.06;95726.94;5023417;28;20544;-55
2022/10/10 04:06:39;;;;;;;19.80;14.70;;;13.10;99.90;;;13.26;69.13;95733.22;5024991;28;20448;-56
2022/10/10 04:09:07;;;;;;;26.50;15.30;;;13.00;99.90;;;13.23;68.76;95725.56;5024654;28;21036;-55
2022/10/10 04:11:35;;;;;;;20.00;13.40;;;13.00;99.90;;;13.20;68.87;95725.81;5024826;28;20495;-55
2022/10/10 04:14:04;;;;;;;16.40;14.00;;;13.00;99.90;;;13.15;68.74;95732.47;5024741;28;20448;-57
2022/10/10 04:16:32;;;;;;;17.30;13.47;;;12.90;99.90;;;13.11;68.28;95734.56;5024863;28;20475;-56
2022/10/10 04:18:59;;;;;;;27.13;14.37;;;12.90;99.90;;;13.07;68.25;95735.78;5024419;28;20956;-56
2022/10/10 04:21:26;;;;;;;15.60;13.90;;;12.80;99.90;;;13.03;68.11;95739.69;5026070;28;20457;-56
2022/10/10 04:23:54;;;;;;;21.23;12.70;;;12.80;99.90;;;13.01;67.84;95738.97;5028590;28;20558;-57
2022/10/10 04:26:21;;;;;;;19.20;13.80;;;12.80;99.90;;;13.00;67.91;95737.31;5028811;28;20504;-57
2022/10/10 04:28:49;;;;;;;16.13;13.97;;;12.80;99.90;;;12.97;67.63;95730.47;5028407;28;20457;-58
2022/10/10 04:31:17;;;;;;;19.90;14.97;;;12.70;99.90;;;12.98;68.03;95733.94;5028413;28;20869;-56
2022/10/10 04:33:45;;;;;;;16.17;13.60;;;12.70;99.90;;;12.97;67.47;95732.28;5027374;28;20471;-56
2022/10/10 04:36:12;;;;;;;21.43;14.40;;;12.70;99.90;;;12.95;67.42;95731.56;5028432;28;20476;-56
2022/10/10 04:38:40;;;;;;;27.60;17.10;;;12.70;99.90;;;12.96;67.66;95733.25;5028116;28;20882;-56
2022/10/10 04:41:07;;;;;;;25.90;18.90;;;12.70;99.90;;;12.91;67.43;95736.28;5028904;28;20480;-57
2022/10/10 04:43:34;;;;;;;26.10;18.10;;;12.70;99.90;;;12.89;67.77;95736.41;5027527;28;20484;-55
2022/10/10 04:46:02;;;;;;;31.10;20.37;;;12.70;99.90;;;12.85;68.11;95734.19;5028226;28;20538;-59
2022/10/10 04:48:31;;;;;;;31.53;21.77;;;12.70;99.90;;;12.81;68.46;95738.91;5028331;28;20495;-56
2022/10/10 04:50:59;;;;;;;29.17;20.83;;;12.60;99.90;;;12.79;68.55;95740.81;5027636;28;21012;-53
2022/10/10 04:53:27;;;;;;;39.03;21.43;;;12.60;99.90;;;12.77;68.51;95740.13;5025968;28;20549;-56
2022/10/10 04:55:54;;;;;;;31.83;21.10;;;12.60;99.90;;;12.76;68.79;95742.88;5022706;28;20476;-53
2022/10/10 04:58:21;;;;;;;41.03;25.33;;;12.50;99.90;;;12.76;69.03;95743.72;5026261;28;20487;-57
2022/10/10 05:00:52;;;;;;;35.10;22.87;;;12.50;99.90;;;12.74;69.05;95748.31;5026151;28;20980;-57
2022/10/10 05:03:19;;;;;;;49.83;24.17;;;12.50;99.90;;;12.76;69.31;95743.72;5024195;28;20542;-56
2022/10/10 05:05:48;;;;;;;36.83;23.57;;;12.50;99.90;;;12.75;69.77;95747.34;5026029;28;20848;-56
2022/10/10 05:08:15;;;;;;;35.93;23.83;;;12.50;99.90;;;12.76;69.52;95749.00;5028412;28;20453;-56
2022/10/10 05:10:43;;;;;;;40.37;23.67;;;12.50;99.90;;;12.79;69.72;95754.00;5024755;28;20469;-57
2022/10/10 05:13:11;;;;;;;42.73;24.73;;;12.60;99.90;;;12.81;69.95;95753.88;5029246;28;20488;-56
2022/10/10 05:15:39;;;;;;;40.53;25.07;;;12.60;99.90;;;12.83;70.11;95750.16;5028212;28;20585;-55
2022/10/10 05:18:06;;;;;;;31.80;21.30;;;12.60;99.90;;;12.84;70.57;95757.13;5027854;28;20839;-56
2022/10/10 05:20:35;;;;;;;46.73;23.60;;;12.60;99.90;;;12.86;70.52;95757.81;5027481;28;20488;-55
2022/10/10 05:23:03;;;;;;;34.53;22.97;;;12.70;99.90;;;12.89;70.38;95764.63;5026902;28;20448;-57
2022/10/10 05:25:31;;;;;;;31.97;23.23;;;12.60;99.90;;;12.90;70.41;95772.44;5023863;28;20480;-54
2022/10/10 05:27:58;;;;;;;35.00;23.30;;;12.70;99.90;;;12.94;70.60;95769.53;5027678;28;20445;-58
2022/10/10 05:30:26;;;;;;;46.60;26.80;;;12.70;99.90;;;12.96;70.87;95768.41;5027193;28;20989;-56
2022/10/10 05:32:53;;;;;;;45.63;26.67;;;12.70;99.90;;;13.00;70.94;95779.56;5025758;28;20493;-56
2022/10/10 05:35:20;;;;;;;48.93;28.07;;;12.80;99.90;;;13.02;70.56;95777.63;5027100;28;20468;-55
2022/10/10 05:37:48;;;;;;;44.87;26.17;;;12.80;99.90;;;13.05;71.01;95780.81;5027338;28;20460;-55
2022/10/10 05:40:17;;;;;;;40.47;25.53;;;12.80;99.90;;;13.09;71.11;95786.69;5027579;28;20483;-57
2022/10/10 05:42:44;;;;;;;41.00;25.23;;;12.80;99.90;;;13.14;70.81;95784.47;5027112;28;20507;-57
2022/10/10 05:45:12;;;;;;;36.83;26.93;;;12.90;99.90;;;13.17;71.03;95781.56;5026856;28;20473;-56
2022/10/10 05:47:39;;;;;;;36.83;24.80;;;12.90;99.90;;;13.21;71.55;95785.59;5026932;28;20452;-55
2022/10/10 05:50:08;;;;;;;41.20;26.37;;;13.00;99.90;;;13.25;71.48;95787.00;5026904;28;20643;-56
2022/10/10 05:52:36;;;;;;;38.90;24.60;;;13.00;99.90;;;13.32;71.25;95786.47;5026914;28;20484;-54
2022/10/10 05:55:03;;;;;;;43.97;26.27;;;13.10;99.90;;;13.37;71.15;95784.28;5026857;28;20469;-56
2022/10/10 05:57:32;;;;;;;45.37;26.43;;;13.10;99.90;;;13.43;71.61;95789.91;5027125;28;20493;-57
2022/10/10 05:59:59;;;;;;;51.87;26.20;;;13.20;99.90;;;13.52;71.46;95797.97;5026834;28;20489;-57
2022/10/10 06:02:27;;;;;;;57.03;26.63;;;13.30;99.90;;;13.59;70.94;95794.66;5027133;28;20452;-57
2022/10/10 06:04:54;;;;;;;49.70;26.00;;;13.30;99.90;;;13.66;71.23;95804.69;5026764;28;20514;-56
2022/10/10 06:07:21;;;;;;;49.00;26.90;;;13.40;99.90;;;13.72;70.64;95799.69;5026993;28;20972;-57
2022/10/10 06:09:49;;;;;;;46.77;26.80;;;13.40;99.90;;;13.78;70.58;95791.22;5026729;28;20469;-55
2022/10/10 06:12:16;;;;;;;56.43;27.40;;;13.50;99.90;;;13.90;70.42;95806.97;5029669;28;20488;-55
2022/10/10 06:14:45;;;;;;;56.33;26.13;;;13.60;99.90;;;14.05;70.65;95802.94;5026882;28;20539;-54
2022/10/10 06:17:12;;;;;;;51.40;24.13;;;13.80;99.90;;;14.21;70.30;95810.34;5026774;28;20453;-56
2022/10/10 06:19:39;;;;;;;61.63;25.60;;;13.90;99.90;;;14.39;70.02;95814.91;5026522;28;20473;-56
2022/10/10 06:22:07;;;;;;;54.63;27.70;;;14.10;99.90;;;14.56;69.89;95818.66;5026797;28;20467;-56
2022/10/10 06:24:34;;;;;;;44.93;25.23;;;14.20;99.90;;;14.74;69.58;95809.06;5026298;28;21089;-57
2022/10/10 06:27:02;;;;;;;43.23;24.03;;;14.40;99.90;;;14.93;68.79;95807.34;5022466;28;20455;-55
2022/10/10 06:29:29;;;;;;;33.47;23.40;;;14.60;99.90;;;15.12;68.69;95809.09;5025873;28;20479;-55
2022/10/10 06:31:58;;;;;;;45.27;23.80;;;14.80;99.90;;;15.36;68.21;95817.38;5025728;28;20694;-56
2022/10/10 06:34:26;;;;;;;37.07;21.93;;;15.00;99.90;;;15.54;67.47;95819.28;5025784;28;20496;-56
2022/10/10 06:36:53;;;;;;;34.70;22.93;;;15.20;99.90;;;15.73;67.55;95819.16;5026298;28;20536;-55
2022/10/10 06:39:21;;;;;;;36.17;21.90;;;15.40;99.90;;;15.95;66.39;95827.72;5026558;28;20484;-56
2022/10/10 06:41:49;;;;;;;44.43;20.03;;;15.60;99.90;;;16.15;65.87;95825.75;5026244;28;20449;-55
2022/10/10 06:44:17;;;;;;;35.00;21.50;;;15.80;99.90;;;16.31;65.60;95825.94;5026184;28;20453;-56
2022/10/10 06:46:45;;;;;;;29.23;20.30;;;15.90;99.90;;;16.44;65.33;95820.22;5025677;28;20969;-56
2022/10/10 06:49:13;;;;;;;31.80;20.50;;;16.10;99.90;;;16.55;64.77;95813.84;5025939;28;20457;-56
2022/10/10 06:51:41;;;;;;;38.90;20.70;;;16.20;99.90;;;16.65;64.90;95819.06;5025789;28;20464;-55
2022/10/10 06:54:09;;;;;;;34.17;21.03;;;16.30;99.90;;;16.74;64.07;95815.47;5026269;28;20714;-56
2022/10/10 06:56:36;;;;;;;33.10;21.10;;;16.40;99.90;;;16.82;63.68;95815.56;5025849;28;20449;-56
2022/10/10 06:59:03;;;;;;;33.37;19.70;;;16.50;99.90;;;16.95;63.76;95817.00;5025658;28;20626;-56
2022/10/10 07:01:31;;;;;;;31.53;20.23;;;16.60;99.90;;;17.07;63.49;95818.41;5025875;28;20452;-53
2022/10/10 07:03:58;;;;;;;30.30;21.80;;;16.70;99.90;;;17.22;63.75;95826.63;5026069;28;20463;-54
2022/10/10 07:06:28;;;;;;;33.90;21.57;;;16.90;99.90;;;17.36;63.38;95823.38;5025981;28;20468;-54
2022/10/10 07:08:56;;;;;;;32.07;21.17;;;17.00;99.90;;;17.48;62.70;95826.59;5026210;28;20472;-56
2022/10/10 07:11:24;;;;;;;41.70;23.90;;;17.10;99.70;;;17.59;62.86;95824.66;5026683;28;20469;-55
2022/10/10 07:13:53;;;;;;;41.13;26.00;;;17.20;99.30;;;17.72;62.61;95823.22;5025714;28;20566;-57
2022/10/10 07:16:20;;;;;;;37.10;23.60;;;17.40;99.30;;;17.89;62.50;95829.47;5025746;28;20468;-56
2022/10/10 07:18:47;;;;;;;37.23;23.37;;;17.60;99.20;;;18.06;61.52;95824.16;5025739;28;20459;-56
2022/10/10 07:21:15;;;;;;;40.03;20.70;;;17.80;98.80;;;18.22;61.46;95818.06;5025357;28;20969;-54
2022/10/10 07:23:43;;;;;;;43.90;22.67;;;17.90;98.30;;;18.38;60.76;95822.59;5025692;28;20452;-55
2022/10/10 07:26:12;;;;;;;36.90;20.50;;;18.10;98.00;;;18.54;60.82;95821.75;5026023;28;21062;-56
2022/10/10 07:28:40;;;;;;;29.73;19.00;;;18.20;97.80;;;18.73;59.70;95820.56;5025898;28;20453;-56
2022/10/10 07:31:09;;;;;;;38.03;21.47;;;18.40;97.30;;;18.93;59.97;95810.44;5025815;28;20472;-53
2022/10/10 07:33:38;;;;;;;34.63;19.93;;;18.60;97.20;;;19.11;59.17;95811.06;5025214;28;20492;-56
2022/10/10 07:36:05;;;;;;;28.50;20.63;;;18.80;96.70;;;19.32;58.41;95815.06;5025647;28;20504;-57
2022/10/10 07:38:33;;;;;;;30.60;19.03;;;19.00;96.20;;;19.54;58.29;95808.13;5025722;28;20460;-56
2022/10/10 07:41:05;;;;;;;28.03;19.40;;;19.20;95.90;;;19.75;57.43;95810.22;5024899;28;21102;-53
2022/10/10 07:43:32;;;;;;;28.33;18.60;;;19.40;95.50;;;19.93;56.86;95807.31;5024832;28;20567;-58
2022/10/10 07:45:59;;;;;;;21.57;17.50;;;19.60;94.80;;;20.07;56.57;95803.06;5025154;28;20480;-56
2022/10/10 07:48:27;;;;;;;34.20;19.03;;;19.80;94.50;;;20.24;56.41;95795.78;5021247;28;20448;-63
2022/10/10 07:50:54;;;;;;;48.77;21.00;;;19.90;94.30;;;20.43;55.99;95802.50;5025303;28;20473;-53
2022/10/10 07:53:21;;;;;;;39.90;22.23;;;20.10;93.90;;;20.62;55.68;95801.22;5025109;28;20492;-57
2022/10/10 07:55:49;;;;;;;75.87;22.40;;;20.30;94.00;;;20.77;54.80;95801.25;5026294;28;20473;-56
2022/10/10 07:58:17;;;;;;;26.53;19.17;;;20.40;93.00;;;20.91;54.51;95795.13;5031053;28;20961;-55
2022/10/10 08:00:45;;;;;;;30.13;20.33;;;20.60;92.70;;;21.02;54.04;95795.69;5031378;28;20499;-55
2022/10/10 08:03:12;;;;;;;28.73;20.00;;;20.60;92.30;;;21.07;53.53;95799.50;5031503;28;20480;-56
2022/10/10 08:05:41;;;;;;;45.53;20.87;;;20.70;91.90;;;21.05;53.25;95793.50;5031328;28;20472;-56
2022/10/10 08:08:10;;;;;;;49.53;21.33;;;20.70;91.40;;;21.10;53.64;95793.78;5031826;28;20511;-55
2022/10/10 08:10:38;;;;;;;33.23;20.47;;;20.70;91.40;;;21.18;53.07;95794.69;5027793;28;20477;-56
2022/10/10 08:13:06;;;;;;;34.60;20.80;;;20.80;91.00;;;21.22;52.53;95787.97;5031680;28;20487;-55
2022/10/10 08:15:35;;;;;;;24.87;19.03;;;20.80;90.90;;;21.23;52.71;95795.00;5031246;28;20464;-57
2022/10/10 08:18:03;;;;;;;27.70;19.20;;;20.80;90.50;;;21.22;52.52;95794.13;5031975;28;20539;-57
2022/10/10 08:20:30;;;;;;;30.97;20.10;;;20.80;90.40;;;21.22;52.43;95801.34;5031814;28;20472;-54
2022/10/10 08:22:58;;;;;;;58.30;21.57;;;20.80;90.30;;;21.27;52.77;95798.94;5031403;28;20458;-55
2022/10/10 08:25:26;;;;;;;45.23;19.10;;;20.90;90.50;;;21.33;52.69;95795.53;5031364;28;20567;-57
2022/10/10 08:27:53;;;;;;;26.07;17.43;;;20.90;90.40;;;21.42;52.13;95797.09;5031438;28;20484;-55
2022/10/10 08:30:21;;;;;;;588.40;76.40;;;21.00;90.10;;;21.53;52.11;95800.38;5031232;28;21005;-57
2022/10/10 08:32:50;;;;;;;431.80;55.37;;;21.10;90.00;;;21.63;51.96;95801.75;5031267;28;20596;-56
2022/10/10 08:35:17;;;;;;;48.87;19.07;;;21.20;89.70;;;21.74;51.86;95794.28;5031565;28;20464;-57
2022/10/10 08:37:45;;;;;;;27.43;17.10;;;21.30;89.30;;;21.82;51.33;95794.16;5030034;28;20659;-57
2022/10/10 08:40:14;;;;;;;453.70;45.07;;;21.30;88.40;;;21.87;51.20;95793.59;5031482;28;20476;-53
2022/10/10 08:42:45;;;;;;;63.47;18.93;;;21.40;88.10;;;21.90;51.21;95796.72;5033297;28;20456;-56
2022/10/10 08:45:15;;;;;;;29.47;17.00;;;21.40;87.70;;;21.90;50.78;95798.56;5030897;28;20475;-56
2022/10/10 08:47:45;;;;;;;24.43;15.40;;;21.50;87.20;;;21.89;51.12;95802.25;5028220;28;20456;-57
2022/10/10 08:50:16;;;;;;;24.10;15.57;;;21.40;86.90;;;21.89;51.26;95800.44;5031235;28;20575;-57
2022/10/10 08:52:47;;;;;;;26.30;15.63;;;21.50;86.70;;;21.88;51.02;95805.97;5027625;28;20448;-56
2022/10/10 08:55:17;;;;;;;44.67;15.23;;;21.40;86.30;;;21.85;51.30;95808.00;5030944;28;20469;-54
2022/10/10 08:57:49;;;;;;;26.40;14.27;;;21.40;86.20;;;21.83;50.38;95801.19;5031042;28;20456;-57
2022/10/10 09:00:21;;;;;;;34.17;15.87;;;21.40;85.50;;;21.81;50.96;95811.22;5030869;28;20484;-56
2022/10/10 09:02:51;;;;;;;89.00;20.80;;;21.40;86.30;;;21.83;50.85;95810.03;5031375;28;21031;-56
2022/10/10 09:05:21;;;;;;;22.20;14.43;;;21.40;85.90;;;21.82;50.44;95811.06;5028532;28;20472;-57
2022/10/10 09:08:20;;;;;;;31.10;15.63;;;21.40;84.90;;;21.82;50.12;95811.06;5028617;28;20448;-57
2022/10/10 09:10:54;;;;;;;55.63;17.60;;;21.40;84.50;;;21.88;50.81;95808.66;5028001;28;20553;-57
2022/10/10 09:13:30;;;;;;;23.03;14.50;;;21.40;84.80;;;21.91;50.29;95810.97;5027860;28;20477;-53
2022/10/10 09:15:59;;;;;;;48.37;16.43;;;21.50;84.50;;;21.98;50.50;95811.84;5025000;28;20539;-56
2022/10/10 09:18:51;;;;;;;28.57;14.67;;;21.50;84.90;;;22.09;50.35;95815.91;5027937;28;20484;-56
2022/10/10 09:21:22;;;;;;;75.83;17.07;;;21.60;85.20;;;22.18;50.62;95823.66;5027090;28;20964;-57
2022/10/10 09:23:52;;;;;;;24.70;12.90;;;21.70;84.90;;;22.29;49.56;95818.81;5028180;28;20463;-56
2022/10/10 09:26:22;;;;;;;17.60;10.13;;;21.80;83.80;;;22.31;49.28;95817.63;5028490;28;20483;-55
2022/10/10 09:28:52;;;;;;;48.27;13.00;;;21.80;82.60;;;22.30;49.63;95804.41;5024070;28;20437;-55
2022/10/10 09:31:22;;;;;;;17.07;10.90;;;21.90;81.80;;;22.32;49.29;95819.31;5027386;28;20544;-54
2022/10/10 09:33:53;;;;;;;90.47;17.23;;;21.90;82.00;;;22.35;49.75;95815.41;5026212;28;20530;-55
2022/10/10 09:36:27;;;;;;;32.07;8.83;;;21.90;81.80;;;22.42;48.78;95819.00;5027343;28;20469;-57
2022/10/10 09:38:56;;;;;;;9.50;7.07;;;22.00;81.10;;;22.46;48.32;95816.75;5027109;28;20504;-56
2022/10/10 09:41:27;;;;;;;9.63;7.67;;;22.00;80.40;;;22.45;48.31;95818.59;5027340;28;20475;-57
2022/10/10 09:43:56;;;;;;;10.40;6.93;;;22.00;79.80;;;22.43;49.06;95815.25;5027143;28;20445;-54
2022/10/10 09:46:24;;;;;;;8.20;6.67;;;22.00;79.70;;;22.35;48.84;95818.06;5023787;28;21019;-56
2022/10/10 09:48:51;;;;;;;12.47;7.07;;;22.00;79.30;;;22.26;48.15;95808.47;5027313;28;20486;-55
2022/10/10 09:51:19;;;;;;;13.93;6.90;;;21.90;78.70;;;22.13;48.44;95807.28;5027373;28;21017;-56
2022/10/10 09:53:48;;;;;;;7.27;5.90;;;21.80;78.50;;;22.04;48.65;95816.47;5027384;28;20515;-56
2022/10/10 09:56:19;;;;;;;6.93;5.90;;;21.70;77.90;;;21.96;48.28;95813.91;5026973;28;21012;-56
2022/10/10 09:58:48;;;;;;;12.60;6.00;;;21.70;77.70;;;21.91;48.40;95810.97;5026644;28;20464;-54
2022/10/10 10:01:18;;;;;;;16.60;6.33;;;21.50;77.80;;;21.88;48.33;95805.97;5026868;28;20510;-57
2022/10/10 10:04:04;;;;;;;23.83;5.80;;;21.50;78.10;;;21.83;48.43;95807.38;5027704;28;20463;-56
2022/10/10 10:06:31;;;;;;;10.00;5.47;;;21.50;77.70;;;21.79;47.77;95808.75;5025864;28;20448;-55
2022/10/10 10:09:02;;;;;;;9.47;5.63;;;21.50;76.90;;;21.71;48.01;95800.81;5027591;28;20453;-56
2022/10/10 10:11:33;;;;;;;6.50;5.57;;;21.30;76.80;;;21.65;47.98;95798.88;5026803;28;21066;-56
2022/10/10 10:14:01;;;;;;;11.33;5.70;;;21.30;76.30;;;21.62;48.10;95796.59;5027516;28;20491;-56
2022/10/10 10:16:35;;;;;;;7.43;5.50;;;21.30;76.70;;;21.61;47.80;95795.75;5026454;28;20465;-56